sensor_id;sensor_type;location;lat;lon;timestamp;P1;P2;P0
70243;PMS7003;57634;51.136;17.024;2023-04-29T00:02:19;10;10;7
70243;PMS7003;57634;51.136;17.024;2023-04-29T00:05:20;11;11;8
70243;PMS7003;57634;51.136;17.024;2023-04-29T00:08:21;11;11;8
70243;PMS7003;57634;51.136;17.024;2023-04-29T00:11:23;11;11;9
70243;PMS7003;57634;51.136;17.024;2023-04-29T00:14:24;9;9;7
70243;PMS7003;57634;51.136;17.024;2023-04-29T00:17:25;12;11;8
70243;PMS7003;57634;51.136;17.024;2023-04-29T00:20:27;9;8;6
70243;PMS7003;57634;51.136;17.024;2023-04-29T00:23:54;11;11;8
70243;PMS7003;57634;51.136;17.024;2023-04-29T00:26:56;9;9;7
70243;PMS7003;57634;51.136;17.024;2023-04-29T00:29:58;11;11;9
70243;PMS7003;57634;51.136;17.024;2023-04-29T00:32:59;12;11;7
70243;PMS7003;57634;51.136;17.024;2023-04-29T00:36:01;12;11;8
70243;PMS7003;57634;51.136;17.024;2023-04-29T00:39:02;10;9;7
70243;PMS7003;57634;51.136;17.024;2023-04-29T00:42:03;10;10;7
70243;PMS7003;57634;51.136;17.024;2023-04-29T00:45:05;13;11;8
70243;PMS7003;57634;51.136;17.024;2023-04-29T00:48:07;11;11;8
70243;PMS7003;57634;51.136;17.024;2023-04-29T00:51:09;9;9;7
70243;PMS7003;57634;51.136;17.024;2023-04-29T00:54:11;11;10;8
70243;PMS7003;57634;51.136;17.024;2023-04-29T00:57:13;14;12;8
70243;PMS7003;57634;51.136;17.024;2023-04-29T01:00:15;15;13;10
70243;PMS7003;57634;51.136;17.024;2023-04-29T01:03:16;10;10;7
70243;PMS7003;57634;51.136;17.024;2023-04-29T01:06:48;14;14;9
70243;PMS7003;57634;51.136;17.024;2023-04-29T01:13:18;13;12;9
70243;PMS7003;57634;51.136;17.024;2023-04-29T01:16:35;14;14;9
70243;PMS7003;57634;51.136;17.024;2023-04-29T01:20:08;13;13;9
70243;PMS7003;57634;51.136;17.024;2023-04-29T01:23:11;15;14;10
70243;PMS7003;57634;51.136;17.024;2023-04-29T01:26:12;15;14;10
70243;PMS7003;57634;51.136;17.024;2023-04-29T01:35:51;15;14;10
70243;PMS7003;57634;51.136;17.024;2023-04-29T01:42:38;14;13;10
70243;PMS7003;57634;51.136;17.024;2023-04-29T01:45:45;14;13;8
70243;PMS7003;57634;51.136;17.024;2023-04-29T01:48:47;16;15;11
70243;PMS7003;57634;51.136;17.024;2023-04-29T01:51:48;13;13;9
70243;PMS7003;57634;51.136;17.024;2023-04-29T01:54:50;16;15;11
70243;PMS7003;57634;51.136;17.024;2023-04-29T01:57:51;16;14;11
70243;PMS7003;57634;51.136;17.024;2023-04-29T02:00:52;12;11;7
70243;PMS7003;57634;51.136;17.024;2023-04-29T02:03:55;15;15;11
70243;PMS7003;57634;51.136;17.024;2023-04-29T02:06:56;16;16;12
70243;PMS7003;57634;51.136;17.024;2023-04-29T02:10:25;14;14;10
70243;PMS7003;57634;51.136;17.024;2023-04-29T02:13:27;20;18;13
70243;PMS7003;57634;51.136;17.024;2023-04-29T02:16:29;19;18;13
70243;PMS7003;57634;51.136;17.024;2023-04-29T02:19:30;21;18;13
70243;PMS7003;57634;51.136;17.024;2023-04-29T02:22:31;16;14;11
70243;PMS7003;57634;51.136;17.024;2023-04-29T02:25:33;18;16;10
70243;PMS7003;57634;51.136;17.024;2023-04-29T02:28:34;15;13;10
70243;PMS7003;57634;51.136;17.024;2023-04-29T02:31:36;15;14;10
70243;PMS7003;57634;51.136;17.024;2023-04-29T02:34:38;15;14;11
70243;PMS7003;57634;51.136;17.024;2023-04-29T02:37:39;14;13;10
70243;PMS7003;57634;51.136;17.024;2023-04-29T02:40:41;18;17;11
70243;PMS7003;57634;51.136;17.024;2023-04-29T02:43:44;11;11;9
70243;PMS7003;57634;51.136;17.024;2023-04-29T02:46:45;13;13;10
70243;PMS7003;57634;51.136;17.024;2023-04-29T02:49:46;13;13;10
70243;PMS7003;57634;51.136;17.024;2023-04-29T02:53:14;17;15;11
70243;PMS7003;57634;51.136;17.024;2023-04-29T02:56:16;10;10;8
70243;PMS7003;57634;51.136;17.024;2023-04-29T02:59:17;14;13;9
70243;PMS7003;57634;51.136;17.024;2023-04-29T03:02:18;13;13;8
70243;PMS7003;57634;51.136;17.024;2023-04-29T03:05:20;11;11;8
70243;PMS7003;57634;51.136;17.024;2023-04-29T03:08:21;12;12;8
70243;PMS7003;57634;51.136;17.024;2023-04-29T03:11:22;13;11;8
70243;PMS7003;57634;51.136;17.024;2023-04-29T03:14:26;12;11;8
70243;PMS7003;57634;51.136;17.024;2023-04-29T03:17:28;16;11;8
70243;PMS7003;57634;51.136;17.024;2023-04-29T03:20:31;11;11;8
70243;PMS7003;57634;51.136;17.024;2023-04-29T03:23:33;12;11;8
70243;PMS7003;57634;51.136;17.024;2023-04-29T03:26:34;12;11;9
70243;PMS7003;57634;51.136;17.024;2023-04-29T03:29:35;11;10;7
70243;PMS7003;57634;51.136;17.024;2023-04-29T03:33:04;9;8;7
70243;PMS7003;57634;51.136;17.024;2023-04-29T03:36:06;11;10;8
70243;PMS7003;57634;51.136;17.024;2023-04-29T03:39:08;11;11;8
70243;PMS7003;57634;51.136;17.024;2023-04-29T03:42:09;11;10;7
70243;PMS7003;57634;51.136;17.024;2023-04-29T03:45:10;10;10;7
70243;PMS7003;57634;51.136;17.024;2023-04-29T03:48:15;11;10;8
70243;PMS7003;57634;51.136;17.024;2023-04-29T03:51:16;13;12;8
70243;PMS7003;57634;51.136;17.024;2023-04-29T03:54:17;9;9;6
70243;PMS7003;57634;51.136;17.024;2023-04-29T03:57:19;13;12;9
70243;PMS7003;57634;51.136;17.024;2023-04-29T04:00:21;11;10;8
70243;PMS7003;57634;51.136;17.024;2023-04-29T04:03:25;9;9;7
70243;PMS7003;57634;51.136;17.024;2023-04-29T04:06:27;7;7;6
70243;PMS7003;57634;51.136;17.024;2023-04-29T04:09:28;9;9;7
70243;PMS7003;57634;51.136;17.024;2023-04-29T04:12:55;10;10;8
70243;PMS7003;57634;51.136;17.024;2023-04-29T04:15:56;11;10;8
70243;PMS7003;57634;51.136;17.024;2023-04-29T04:18:58;5;5;3
70243;PMS7003;57634;51.136;17.024;2023-04-29T04:21:59;12;9;7
70243;PMS7003;57634;51.136;17.024;2023-04-29T04:25:03;10;9;7
70243;PMS7003;57634;51.136;17.024;2023-04-29T04:28:04;11;10;7
70243;PMS7003;57634;51.136;17.024;2023-04-29T04:31:07;9;9;7
70243;PMS7003;57634;51.136;17.024;2023-04-29T04:34:08;9;7;5
70243;PMS7003;57634;51.136;17.024;2023-04-29T04:37:10;10;9;7
70243;PMS7003;57634;51.136;17.024;2023-04-29T04:40:11;11;11;8
70243;PMS7003;57634;51.136;17.024;2023-04-29T04:43:13;10;8;6
70243;PMS7003;57634;51.136;17.024;2023-04-29T04:46:14;9;9;6
70243;PMS7003;57634;51.136;17.024;2023-04-29T04:49:16;11;10;8
70243;PMS7003;57634;51.136;17.024;2023-04-29T04:52:19;10;9;7
70243;PMS7003;57634;51.136;17.024;2023-04-29T04:55:47;12;11;8
70243;PMS7003;57634;51.136;17.024;2023-04-29T04:58:49;11;11;8
70243;PMS7003;57634;51.136;17.024;2023-04-29T05:01:50;11;10;8
70243;PMS7003;57634;51.136;17.024;2023-04-29T05:04:51;10;10;7
70243;PMS7003;57634;51.136;17.024;2023-04-29T05:07:52;8;8;7
70243;PMS7003;57634;51.136;17.024;2023-04-29T05:10:53;10;9;7
70243;PMS7003;57634;51.136;17.024;2023-04-29T05:13:54;9;9;6
70243;PMS7003;57634;51.136;17.024;2023-04-29T05:16:59;9;9;6
70243;PMS7003;57634;51.136;17.024;2023-04-29T05:20:00;9;9;6
70243;PMS7003;57634;51.136;17.024;2023-04-29T05:23:01;10;9;7
70243;PMS7003;57634;51.136;17.024;2023-04-29T05:26:03;9;9;7
70243;PMS7003;57634;51.136;17.024;2023-04-29T05:29:04;9;8;7
70243;PMS7003;57634;51.136;17.024;2023-04-29T05:32:06;12;11;8
70243;PMS7003;57634;51.136;17.024;2023-04-29T05:35:08;11;10;7
70243;PMS7003;57634;51.136;17.024;2023-04-29T05:38:36;12;11;9
70243;PMS7003;57634;51.136;17.024;2023-04-29T05:41:37;11;10;8
70243;PMS7003;57634;51.136;17.024;2023-04-29T05:44:39;13;11;8
70243;PMS7003;57634;51.136;17.024;2023-04-29T05:47:40;10;9;7
70243;PMS7003;57634;51.136;17.024;2023-04-29T05:50:45;11;10;7
70243;PMS7003;57634;51.136;17.024;2023-04-29T05:53:48;9;9;6
70243;PMS7003;57634;51.136;17.024;2023-04-29T05:56:49;10;10;6
70243;PMS7003;57634;51.136;17.024;2023-04-29T05:59:51;11;11;8
70243;PMS7003;57634;51.136;17.024;2023-04-29T06:02:54;10;9;7
70243;PMS7003;57634;51.136;17.024;2023-04-29T06:05:56;8;8;5
70243;PMS7003;57634;51.136;17.024;2023-04-29T06:08:59;9;8;6
70243;PMS7003;57634;51.136;17.024;2023-04-29T06:12:01;9;8;6
70243;PMS7003;57634;51.136;17.024;2023-04-29T06:15:30;8;7;6
70243;PMS7003;57634;51.136;17.024;2023-04-29T06:18:32;7;7;5
70243;PMS7003;57634;51.136;17.024;2023-04-29T06:21:33;8;8;6
70243;PMS7003;57634;51.136;17.024;2023-04-29T06:24:34;7;7;5
70243;PMS7003;57634;51.136;17.024;2023-04-29T06:27:36;8;8;6
70243;PMS7003;57634;51.136;17.024;2023-04-29T06:30:37;7;7;6
70243;PMS7003;57634;51.136;17.024;2023-04-29T06:34:47;11;10;7
70243;PMS7003;57634;51.136;17.024;2023-04-29T06:37:49;10;9;7
70243;PMS7003;57634;51.136;17.024;2023-04-29T06:40:52;11;9;7
70243;PMS7003;57634;51.136;17.024;2023-04-29T06:43:53;11;11;8
70243;PMS7003;57634;51.136;17.024;2023-04-29T06:46:55;8;7;6
70243;PMS7003;57634;51.136;17.024;2023-04-29T06:49:56;12;11;8
70243;PMS7003;57634;51.136;17.024;2023-04-29T06:52:58;11;11;9
70243;PMS7003;57634;51.136;17.024;2023-04-29T06:55:59;8;8;7
70243;PMS7003;57634;51.136;17.024;2023-04-29T06:59:00;10;10;8
70243;PMS7003;57634;51.136;17.024;2023-04-29T07:02:01;8;7;6
70243;PMS7003;57634;51.136;17.024;2023-04-29T07:05:02;11;11;9
70243;PMS7003;57634;51.136;17.024;2023-04-29T07:08:05;9;9;7
70243;PMS7003;57634;51.136;17.024;2023-04-29T07:11:07;14;13;9
70243;PMS7003;57634;51.136;17.024;2023-04-29T07:14:35;12;11;9
70243;PMS7003;57634;51.136;17.024;2023-04-29T07:17:37;11;10;9
70243;PMS7003;57634;51.136;17.024;2023-04-29T07:20:38;13;11;8
70243;PMS7003;57634;51.136;17.024;2023-04-29T07:23:40;10;10;8
70243;PMS7003;57634;51.136;17.024;2023-04-29T07:26:42;13;11;9
70243;PMS7003;57634;51.136;17.024;2023-04-29T07:29:44;13;12;9
70243;PMS7003;57634;51.136;17.024;2023-04-29T07:32:46;11;11;8
70243;PMS7003;57634;51.136;17.024;2023-04-29T07:35:47;11;10;8
70243;PMS7003;57634;51.136;17.024;2023-04-29T07:38:49;11;10;7
70243;PMS7003;57634;51.136;17.024;2023-04-29T07:41:50;12;10;7
70243;PMS7003;57634;51.136;17.024;2023-04-29T07:44:52;12;10;7
70243;PMS7003;57634;51.136;17.024;2023-04-29T07:47:53;13;11;8
70243;PMS7003;57634;51.136;17.024;2023-04-29T07:50:54;11;10;7
70243;PMS7003;57634;51.136;17.024;2023-04-29T07:53:55;11;11;8
70243;PMS7003;57634;51.136;17.024;2023-04-29T07:57:23;11;10;8
70243;PMS7003;57634;51.136;17.024;2023-04-29T08:00:24;10;10;7
70243;PMS7003;57634;51.136;17.024;2023-04-29T08:03:27;13;12;7
70243;PMS7003;57634;51.136;17.024;2023-04-29T08:06:28;9;9;6
70243;PMS7003;57634;51.136;17.024;2023-04-29T08:09:30;10;9;6
70243;PMS7003;57634;51.136;17.024;2023-04-29T08:12:31;11;10;6
70243;PMS7003;57634;51.136;17.024;2023-04-29T08:15:33;9;8;6
70243;PMS7003;57634;51.136;17.024;2023-04-29T08:18:34;10;9;6
70243;PMS7003;57634;51.136;17.024;2023-04-29T08:21:36;8;8;7
70243;PMS7003;57634;51.136;17.024;2023-04-29T08:24:38;11;9;5
70243;PMS7003;57634;51.136;17.024;2023-04-29T08:27:40;7;7;5
70243;PMS7003;57634;51.136;17.024;2023-04-29T08:30:45;11;10;7
70243;PMS7003;57634;51.136;17.024;2023-04-29T08:33:47;20;20;14
70243;PMS7003;57634;51.136;17.024;2023-04-29T08:37:14;11;10;8
70243;PMS7003;57634;51.136;17.024;2023-04-29T08:40:15;10;8;6
70243;PMS7003;57634;51.136;17.024;2023-04-29T08:43:17;6;5;4
70243;PMS7003;57634;51.136;17.024;2023-04-29T08:46:20;8;8;6
70243;PMS7003;57634;51.136;17.024;2023-04-29T08:49:26;7;7;5
70243;PMS7003;57634;51.136;17.024;2023-04-29T08:52:29;9;8;5
70243;PMS7003;57634;51.136;17.024;2023-04-29T08:55:33;9;8;6
70243;PMS7003;57634;51.136;17.024;2023-04-29T08:58:36;9;8;5
70243;PMS7003;57634;51.136;17.024;2023-04-29T09:01:39;9;8;6
70243;PMS7003;57634;51.136;17.024;2023-04-29T09:08:22;10;10;7
70243;PMS7003;57634;51.136;17.024;2023-04-29T09:11:24;9;8;6
70243;PMS7003;57634;51.136;17.024;2023-04-29T09:14:27;8;8;5
70243;PMS7003;57634;51.136;17.024;2023-04-29T09:20:42;6;6;5
70243;PMS7003;57634;51.136;17.024;2023-04-29T09:23:45;10;9;6
70243;PMS7003;57634;51.136;17.024;2023-04-29T09:26:47;9;9;7
70243;PMS7003;57634;51.136;17.024;2023-04-29T09:33:28;7;7;5
70243;PMS7003;57634;51.136;17.024;2023-04-29T09:36:37;6;6;4
70243;PMS7003;57634;51.136;17.024;2023-04-29T09:39:47;6;6;5
70243;PMS7003;57634;51.136;17.024;2023-04-29T09:42:48;8;7;6
70243;PMS7003;57634;51.136;17.024;2023-04-29T09:45:50;7;7;5
70243;PMS7003;57634;51.136;17.024;2023-04-29T09:48:52;6;6;4
70243;PMS7003;57634;51.136;17.024;2023-04-29T09:51:57;4;4;3
70243;PMS7003;57634;51.136;17.024;2023-04-29T09:55:04;5;4;3
70243;PMS7003;57634;51.136;17.024;2023-04-29T09:58:33;4;4;2
70243;PMS7003;57634;51.136;17.024;2023-04-29T10:01:39;4;4;3
70243;PMS7003;57634;51.136;17.024;2023-04-29T10:04:40;4;4;3
70243;PMS7003;57634;51.136;17.024;2023-04-29T10:07:45;4;3;2
70243;PMS7003;57634;51.136;17.024;2023-04-29T10:10:50;3;3;2
70243;PMS7003;57634;51.136;17.024;2023-04-29T10:13:57;2;2;1
70243;PMS7003;57634;51.136;17.024;2023-04-29T10:17:07;3;3;2
70243;PMS7003;57634;51.136;17.024;2023-04-29T10:20:12;4;3;1
70243;PMS7003;57634;51.136;17.024;2023-04-29T10:23:42;3;3;2
70243;PMS7003;57634;51.136;17.024;2023-04-29T10:26:45;4;3;1
70243;PMS7003;57634;51.136;17.024;2023-04-29T10:29:47;3;2;2
70243;PMS7003;57634;51.136;17.024;2023-04-29T10:32:51;2;2;1
70243;PMS7003;57634;51.136;17.024;2023-04-29T10:35:53;4;3;1
70243;PMS7003;57634;51.136;17.024;2023-04-29T10:38:56;4;4;2
70243;PMS7003;57634;51.136;17.024;2023-04-29T10:42:00;3;3;2
70243;PMS7003;57634;51.136;17.024;2023-04-29T10:48:48;2;2;1
70243;PMS7003;57634;51.136;17.024;2023-04-29T10:51:59;3;3;2
70243;PMS7003;57634;51.136;17.024;2023-04-29T10:55:04;4;4;2
70243;PMS7003;57634;51.136;17.024;2023-04-29T11:01:26;2;2;1
70243;PMS7003;57634;51.136;17.024;2023-04-29T11:04:31;2;2;1
70243;PMS7003;57634;51.136;17.024;2023-04-29T11:11:12;2;2;1
70243;PMS7003;57634;51.136;17.024;2023-04-29T11:14:20;3;2;2
70243;PMS7003;57634;51.136;17.024;2023-04-29T11:17:24;2;2;1
70243;PMS7003;57634;51.136;17.024;2023-04-29T11:20:25;2;2;1
70243;PMS7003;57634;51.136;17.024;2023-04-29T11:23:27;4;2;1
70243;PMS7003;57634;51.136;17.024;2023-04-29T11:26:28;2;1;0
70243;PMS7003;57634;51.136;17.024;2023-04-29T11:29:30;3;2;1
70243;PMS7003;57634;51.136;17.024;2023-04-29T11:32:36;2;2;1
70243;PMS7003;57634;51.136;17.024;2023-04-29T11:36:05;3;3;2
70243;PMS7003;57634;51.136;17.024;2023-04-29T11:39:08;1;1;1
70243;PMS7003;57634;51.136;17.024;2023-04-29T11:42:09;2;2;1
70243;PMS7003;57634;51.136;17.024;2023-04-29T11:45:11;1;1;1
70243;PMS7003;57634;51.136;17.024;2023-04-29T11:51:26;2;1;0
70243;PMS7003;57634;51.136;17.024;2023-04-29T11:54:34;2;1;0
70243;PMS7003;57634;51.136;17.024;2023-04-29T11:57:35;1;1;1
70243;PMS7003;57634;51.136;17.024;2023-04-29T12:00:38;1;1;0
70243;PMS7003;57634;51.136;17.024;2023-04-29T12:04:07;2;2;1
70243;PMS7003;57634;51.136;17.024;2023-04-29T12:10:19;4;3;1
70243;PMS7003;57634;51.136;17.024;2023-04-29T12:13:24;2;2;1
70243;PMS7003;57634;51.136;17.024;2023-04-29T12:16:28;3;2;1
70243;PMS7003;57634;51.136;17.024;2023-04-29T12:19:30;3;3;1
70243;PMS7003;57634;51.136;17.024;2023-04-29T12:22:33;1;1;0
70243;PMS7003;57634;51.136;17.024;2023-04-29T12:25:34;2;2;1
70243;PMS7003;57634;51.136;17.024;2023-04-29T12:28:36;3;3;2
70243;PMS7003;57634;51.136;17.024;2023-04-29T12:32:15;6;3;2
70243;PMS7003;57634;51.136;17.024;2023-04-29T12:35:17;3;3;2
70243;PMS7003;57634;51.136;17.024;2023-04-29T12:38:19;5;5;3
70243;PMS7003;57634;51.136;17.024;2023-04-29T12:44:35;5;5;3
70243;PMS7003;57634;51.136;17.024;2023-04-29T12:47:37;6;4;3
70243;PMS7003;57634;51.136;17.024;2023-04-29T12:50:39;5;5;4
70243;PMS7003;57634;51.136;17.024;2023-04-29T12:53:44;4;4;2
70243;PMS7003;57634;51.136;17.024;2023-04-29T12:57:15;3;3;2
70243;PMS7003;57634;51.136;17.024;2023-04-29T13:00:18;4;4;3
70243;PMS7003;57634;51.136;17.024;2023-04-29T13:03:20;4;4;3
70243;PMS7003;57634;51.136;17.024;2023-04-29T13:06:21;6;4;3
70243;PMS7003;57634;51.136;17.024;2023-04-29T13:09:23;2;2;1
70243;PMS7003;57634;51.136;17.024;2023-04-29T13:12:24;4;4;3
70243;PMS7003;57634;51.136;17.024;2023-04-29T13:15:26;2;2;1
70243;PMS7003;57634;51.136;17.024;2023-04-29T13:18:27;2;2;1
70243;PMS7003;57634;51.136;17.024;2023-04-29T13:21:28;2;2;1
70243;PMS7003;57634;51.136;17.024;2023-04-29T13:24:32;1;1;0
70243;PMS7003;57634;51.136;17.024;2023-04-29T13:27:36;1;1;0
70243;PMS7003;57634;51.136;17.024;2023-04-29T13:30:38;2;1;0
70243;PMS7003;57634;51.136;17.024;2023-04-29T13:33:39;1;1;0
70243;PMS7003;57634;51.136;17.024;2023-04-29T13:37:06;1;1;0
70243;PMS7003;57634;51.136;17.024;2023-04-29T13:40:08;0;0;0
70243;PMS7003;57634;51.136;17.024;2023-04-29T13:43:10;1;1;0
70243;PMS7003;57634;51.136;17.024;2023-04-29T13:46:11;0;0;0
70243;PMS7003;57634;51.136;17.024;2023-04-29T13:49:12;1;1;1
70243;PMS7003;57634;51.136;17.024;2023-04-29T13:52:17;1;1;0
70243;PMS7003;57634;51.136;17.024;2023-04-29T13:55:18;2;2;1
70243;PMS7003;57634;51.136;17.024;2023-04-29T13:58:21;1;1;1
70243;PMS7003;57634;51.136;17.024;2023-04-29T14:01:22;1;0;0
70243;PMS7003;57634;51.136;17.024;2023-04-29T14:04:24;2;2;1
70243;PMS7003;57634;51.136;17.024;2023-04-29T14:07:26;2;2;1
70243;PMS7003;57634;51.136;17.024;2023-04-29T14:10:27;2;1;1
70243;PMS7003;57634;51.136;17.024;2023-04-29T14:13:28;1;1;0
70243;PMS7003;57634;51.136;17.024;2023-04-29T14:16:57;1;1;0
70243;PMS7003;57634;51.136;17.024;2023-04-29T14:19:58;0;0;0
70243;PMS7003;57634;51.136;17.024;2023-04-29T14:22:59;2;1;1
70243;PMS7003;57634;51.136;17.024;2023-04-29T14:26:02;2;2;1
70243;PMS7003;57634;51.136;17.024;2023-04-29T14:29:03;2;1;1
70243;PMS7003;57634;51.136;17.024;2023-04-29T14:32:04;1;1;0
70243;PMS7003;57634;51.136;17.024;2023-04-29T14:35:07;4;1;1
70243;PMS7003;57634;51.136;17.024;2023-04-29T14:38:09;2;2;1
70243;PMS7003;57634;51.136;17.024;2023-04-29T14:41:10;3;2;2
70243;PMS7003;57634;51.136;17.024;2023-04-29T14:44:12;2;2;2
70243;PMS7003;57634;51.136;17.024;2023-04-29T14:47:16;3;2;2
70243;PMS7003;57634;51.136;17.024;2023-04-29T14:50:17;2;1;1
70243;PMS7003;57634;51.136;17.024;2023-04-29T14:53:19;3;2;0
70243;PMS7003;57634;51.136;17.024;2023-04-29T14:56:49;2;2;1
70243;PMS7003;57634;51.136;17.024;2023-04-29T14:59:50;4;3;2
70243;PMS7003;57634;51.136;17.024;2023-04-29T15:02:51;2;2;1
70243;PMS7003;57634;51.136;17.024;2023-04-29T15:05:56;0;0;0
70243;PMS7003;57634;51.136;17.024;2023-04-29T15:08:58;0;0;0
70243;PMS7003;57634;51.136;17.024;2023-04-29T15:11:59;0;0;0
70243;PMS7003;57634;51.136;17.024;2023-04-29T15:15:01;2;2;0
70243;PMS7003;57634;51.136;17.024;2023-04-29T15:18:04;0;0;0
70243;PMS7003;57634;51.136;17.024;2023-04-29T15:21:08;3;2;1
70243;PMS7003;57634;51.136;17.024;2023-04-29T15:24:11;3;3;2
70243;PMS7003;57634;51.136;17.024;2023-04-29T15:27:13;1;1;0
70243;PMS7003;57634;51.136;17.024;2023-04-29T15:30:16;2;2;1
70243;PMS7003;57634;51.136;17.024;2023-04-29T15:33:44;3;3;2
70243;PMS7003;57634;51.136;17.024;2023-04-29T15:36:45;2;2;1
70243;PMS7003;57634;51.136;17.024;2023-04-29T15:39:47;4;3;2
70243;PMS7003;57634;51.136;17.024;2023-04-29T15:42:48;5;5;4
70243;PMS7003;57634;51.136;17.024;2023-04-29T15:45:49;4;4;2
70243;PMS7003;57634;51.136;17.024;2023-04-29T15:48:51;4;4;3
70243;PMS7003;57634;51.136;17.024;2023-04-29T15:51:52;4;4;2
70243;PMS7003;57634;51.136;17.024;2023-04-29T15:54:53;2;2;1
70243;PMS7003;57634;51.136;17.024;2023-04-29T15:57:54;5;4;3
70243;PMS7003;57634;51.136;17.024;2023-04-29T16:00:56;5;5;4
70243;PMS7003;57634;51.136;17.024;2023-04-29T16:03:57;4;4;2
70243;PMS7003;57634;51.136;17.024;2023-04-29T16:06:58;3;3;2
70243;PMS7003;57634;51.136;17.024;2023-04-29T16:10:04;4;3;2
70243;PMS7003;57634;51.136;17.024;2023-04-29T16:13:06;4;4;3
70243;PMS7003;57634;51.136;17.024;2023-04-29T16:16:33;3;3;2
70243;PMS7003;57634;51.136;17.024;2023-04-29T16:19:34;4;4;3
70243;PMS7003;57634;51.136;17.024;2023-04-29T16:22:35;1;1;1
70243;PMS7003;57634;51.136;17.024;2023-04-29T16:25:38;4;4;3
70243;PMS7003;57634;51.136;17.024;2023-04-29T16:28:41;3;3;2
70243;PMS7003;57634;51.136;17.024;2023-04-29T16:31:42;4;4;3
70243;PMS7003;57634;51.136;17.024;2023-04-29T16:34:44;5;4;3
70243;PMS7003;57634;51.136;17.024;2023-04-29T16:37:45;4;4;3
70243;PMS7003;57634;51.136;17.024;2023-04-29T16:40:46;7;5;4
70243;PMS7003;57634;51.136;17.024;2023-04-29T16:43:47;7;6;4
70243;PMS7003;57634;51.136;17.024;2023-04-29T16:46:49;6;6;3
70243;PMS7003;57634;51.136;17.024;2023-04-29T16:49:51;7;6;4
70243;PMS7003;57634;51.136;17.024;2023-04-29T16:52:52;5;5;4
70243;PMS7003;57634;51.136;17.024;2023-04-29T16:55:53;5;4;4
70243;PMS7003;57634;51.136;17.024;2023-04-29T16:59:21;6;6;4
70243;PMS7003;57634;51.136;17.024;2023-04-29T17:02:22;6;6;4
70243;PMS7003;57634;51.136;17.024;2023-04-29T17:05:23;7;6;4
70243;PMS7003;57634;51.136;17.024;2023-04-29T17:08:29;5;5;3
70243;PMS7003;57634;51.136;17.024;2023-04-29T17:11:30;5;5;4
70243;PMS7003;57634;51.136;17.024;2023-04-29T17:14:31;6;6;4
70243;PMS7003;57634;51.136;17.024;2023-04-29T17:17:33;6;5;4
70243;PMS7003;57634;51.136;17.024;2023-04-29T17:20:34;4;4;3
70243;PMS7003;57634;51.136;17.024;2023-04-29T17:23:36;4;4;3
70243;PMS7003;57634;51.136;17.024;2023-04-29T17:26:37;4;3;3
70243;PMS7003;57634;51.136;17.024;2023-04-29T17:29:39;5;4;3
70243;PMS7003;57634;51.136;17.024;2023-04-29T17:32:41;20;19;14
70243;PMS7003;57634;51.136;17.024;2023-04-29T17:35:48;11;11;7
70243;PMS7003;57634;51.136;17.024;2023-04-29T17:39:18;9;8;5
70243;PMS7003;57634;51.136;17.024;2023-04-29T17:42:28;4;4;3
70243;PMS7003;57634;51.136;17.024;2023-04-29T17:45:29;7;5;3
70243;PMS7003;57634;51.136;17.024;2023-04-29T17:48:31;7;6;4
70243;PMS7003;57634;51.136;17.024;2023-04-29T17:51:32;3;2;1
70243;PMS7003;57634;51.136;17.024;2023-04-29T17:54:37;5;5;3
70243;PMS7003;57634;51.136;17.024;2023-04-29T17:57:39;7;6;4
70243;PMS7003;57634;51.136;17.024;2023-04-29T18:00:41;13;11;6
70243;PMS7003;57634;51.136;17.024;2023-04-29T18:03:42;4;4;3
70243;PMS7003;57634;51.136;17.024;2023-04-29T18:06:44;6;6;3
70243;PMS7003;57634;51.136;17.024;2023-04-29T18:09:45;6;5;3
70243;PMS7003;57634;51.136;17.024;2023-04-29T18:13:13;4;4;3
70243;PMS7003;57634;51.136;17.024;2023-04-29T18:16:14;5;4;3
70243;PMS7003;57634;51.136;17.024;2023-04-29T18:19:17;12;11;8
70243;PMS7003;57634;51.136;17.024;2023-04-29T18:22:18;6;6;5
70243;PMS7003;57634;51.136;17.024;2023-04-29T18:25:19;10;8;6
70243;PMS7003;57634;51.136;17.024;2023-04-29T18:28:21;7;6;5
70243;PMS7003;57634;51.136;17.024;2023-04-29T18:31:25;10;9;6
70243;PMS7003;57634;51.136;17.024;2023-04-29T18:34:26;11;10;6
70243;PMS7003;57634;51.136;17.024;2023-04-29T18:37:28;15;13;9
70243;PMS7003;57634;51.136;17.024;2023-04-29T18:40:31;15;13;9
70243;PMS7003;57634;51.136;17.024;2023-04-29T18:43:35;20;19;13
70243;PMS7003;57634;51.136;17.024;2023-04-29T18:46:36;18;14;8
70243;PMS7003;57634;51.136;17.024;2023-04-29T18:49:37;16;16;11
70243;PMS7003;57634;51.136;17.024;2023-04-29T18:53:05;18;17;10
70243;PMS7003;57634;51.136;17.024;2023-04-29T18:56:06;17;17;12
70243;PMS7003;57634;51.136;17.024;2023-04-29T18:59:07;20;19;12
70243;PMS7003;57634;51.136;17.024;2023-04-29T19:02:11;17;16;10
70243;PMS7003;57634;51.136;17.024;2023-04-29T19:05:12;16;16;10
70243;PMS7003;57634;51.136;17.024;2023-04-29T19:08:13;19;17;10
70243;PMS7003;57634;51.136;17.024;2023-04-29T19:11:16;18;17;11
70243;PMS7003;57634;51.136;17.024;2023-04-29T19:14:17;17;16;10
70243;PMS7003;57634;51.136;17.024;2023-04-29T19:17:18;14;13;8
70243;PMS7003;57634;51.136;17.024;2023-04-29T19:20:20;20;17;11
70243;PMS7003;57634;51.136;17.024;2023-04-29T19:23:21;18;17;11
70243;PMS7003;57634;51.136;17.024;2023-04-29T19:26:23;19;17;11
70243;PMS7003;57634;51.136;17.024;2023-04-29T19:29:24;17;16;11
70243;PMS7003;57634;51.136;17.024;2023-04-29T19:32:26;19;18;12
70243;PMS7003;57634;51.136;17.024;2023-04-29T19:35:54;16;15;9
70243;PMS7003;57634;51.136;17.024;2023-04-29T19:38:55;16;14;9
70243;PMS7003;57634;51.136;17.024;2023-04-29T19:41:56;16;14;9
70243;PMS7003;57634;51.136;17.024;2023-04-29T19:44:57;16;16;10
70243;PMS7003;57634;51.136;17.024;2023-04-29T19:47:58;18;16;11
70243;PMS7003;57634;51.136;17.024;2023-04-29T19:51:04;15;13;9
70243;PMS7003;57634;51.136;17.024;2023-04-29T19:54:06;18;17;10
70243;PMS7003;57634;51.136;17.024;2023-04-29T19:57:07;16;14;9
70243;PMS7003;57634;51.136;17.024;2023-04-29T20:00:09;14;13;9
70243;PMS7003;57634;51.136;17.024;2023-04-29T20:03:14;18;16;11
70243;PMS7003;57634;51.136;17.024;2023-04-29T20:06:16;18;17;11
70243;PMS7003;57634;51.136;17.024;2023-04-29T20:09:17;18;17;11
70243;PMS7003;57634;51.136;17.024;2023-04-29T20:12:19;20;19;12
70243;PMS7003;57634;51.136;17.024;2023-04-29T20:15:46;23;22;14
70243;PMS7003;57634;51.136;17.024;2023-04-29T20:18:49;21;20;13
70243;PMS7003;57634;51.136;17.024;2023-04-29T20:21:52;24;22;14
70243;PMS7003;57634;51.136;17.024;2023-04-29T20:24:58;21;19;12
70243;PMS7003;57634;51.136;17.024;2023-04-29T20:27:59;21;19;12
70243;PMS7003;57634;51.136;17.024;2023-04-29T20:31:00;25;21;14
70243;PMS7003;57634;51.136;17.024;2023-04-29T20:34:02;25;24;15
70243;PMS7003;57634;51.136;17.024;2023-04-29T20:37:03;23;21;13
70243;PMS7003;57634;51.136;17.024;2023-04-29T20:40:06;21;19;13
70243;PMS7003;57634;51.136;17.024;2023-04-29T20:43:09;21;20;12
70243;PMS7003;57634;51.136;17.024;2023-04-29T20:46:11;22;19;13
70243;PMS7003;57634;51.136;17.024;2023-04-29T20:49:12;21;20;13